Time;durP1;ratioP1;P1;durP2;ratioP2;P2;SDS_P1;SDS_P2;PMS_P1;PMS_P2;Temp;Humidity;BMP_temperature;BMP_pressure;BME280_temperature;BME280_humidity;BME280_pressure;Samples;Min_cycle;Max_cycle;Signal;HPM_P1;HPM_P2
2020/12/04 00:04:39;;;;;;;3.38;1.25;;;-3.40;99.90;;;;;;20755435;28;20158;-64
2020/12/04 00:14:41;;;;;;;2.17;1.20;;;-3.90;99.90;;;;;;20661694;28;20419;-64
2020/12/04 00:24:43;;;;;;;2.08;1.13;;;-4.00;99.90;;;;;;20790928;28;20047;-64
2020/12/04 00:34:45;;;;;;;2.85;1.35;;;-3.80;99.90;;;;;;20735396;28;20054;-64
2020/12/04 00:44:47;;;;;;;2.08;0.90;;;-3.50;99.90;;;;;;20753197;28;20038;-64
2020/12/04 00:54:49;;;;;;;1.23;0.65;;;-3.30;99.90;;;;;;20752301;28;20042;-64
2020/12/04 01:04:51;;;;;;;1.20;0.60;;;-3.20;99.90;;;;;;20734342;28;20041;-64
2020/12/04 01:14:53;;;;;;;1.70;0.63;;;-3.10;99.90;;;;;;20733421;28;20447;-64
2020/12/04 01:24:55;;;;;;;1.15;0.47;;;-3.00;99.90;;;;;;20709382;28;20465;-64
2020/12/04 01:34:56;;;;;;;1.60;0.70;;;-3.00;99.90;;;;;;20748940;28;20046;-64
2020/12/04 01:44:58;;;;;;;2.15;0.75;;;-2.90;99.90;;;;;;20748777;28;20092;-64
2020/12/04 01:55:00;;;;;;;1.58;0.47;;;-2.70;99.90;;;;;;20747935;28;20042;-64
2020/12/04 02:05:03;;;;;;;0.60;0.40;;;-2.40;99.90;;;;;;20823396;28;20461;-65
2020/12/04 02:15:05;;;;;;;2.35;0.60;;;-2.10;99.90;;;;;;20824545;28;20063;-64
2020/12/04 02:25:09;;;;;;;1.77;0.75;;;-1.90;99.90;;;;;;20727890;28;20550;-64
2020/12/04 02:35:11;;;;;;;3.50;0.70;;;-1.70;99.90;;;;;;20744989;28;20493;-64
2020/12/04 02:45:14;;;;;;;1.00;0.60;;;-1.50;99.90;;;;;;20744604;28;20046;-64
2020/12/04 02:55:16;;;;;;;2.55;0.70;;;-1.40;99.90;;;;;;20743480;28;20053;-64
2020/12/04 03:05:18;;;;;;;1.33;0.50;;;-1.30;99.90;;;;;;20743816;28;20136;-64
2020/12/04 03:15:19;;;;;;;3.03;0.60;;;-1.20;99.90;;;;;;20741816;28;20116;-64
2020/12/04 03:25:21;;;;;;;1.00;0.52;;;-1.10;99.90;;;;;;20744125;28;20104;-64
2020/12/04 03:35:23;;;;;;;0.95;0.43;;;-1.10;99.90;;;;;;20824067;28;20033;-64
2020/12/04 03:45:25;;;;;;;0.93;0.40;;;-1.00;99.90;;;;;;20799493;28;20475;-64
2020/12/04 03:55:26;;;;;;;0.40;0.30;;;-0.90;99.90;;;;;;20782612;28;20455;-65
2020/12/04 04:05:28;;;;;;;1.63;0.47;;;-0.70;99.90;;;;;;20756875;28;20038;-64
2020/12/04 04:15:30;;;;;;;1.80;0.50;;;-0.60;99.90;;;;;;20755879;28;20041;-64
2020/12/04 04:25:32;;;;;;;0.80;0.40;;;-0.60;99.90;;;;;;20753427;28;20104;-64
2020/12/04 04:35:34;;;;;;;0.90;0.60;;;-0.70;99.90;;;;;;20751962;28;20049;-64
2020/12/04 04:45:42;;;;;;;1.20;0.80;;;-0.60;99.90;;;;;;20734905;28;20472;-64
2020/12/04 04:55:44;;;;;;;1.00;0.60;;;-0.50;99.90;;;;;;20735122;28;20084;-64
2020/12/04 05:05:52;;;;;;;1.63;0.70;;;-0.40;99.90;;;;;;20750885;28;20045;-64
2020/12/04 05:15:54;;;;;;;3.47;0.68;;;-0.50;99.90;;;;;;20751319;28;20403;-64
2020/12/04 05:25:57;;;;;;;1.55;0.98;;;-0.60;99.90;;;;;;20757925;28;20240;-64
2020/12/04 05:36:01;;;;;;;1.40;0.60;;;-0.70;99.90;;;;;;20813881;28;20033;-63
2020/12/04 05:46:19;;;;;;;3.05;0.60;;;-0.80;99.90;;;;;;20829598;28;20053;-64
2020/12/04 05:56:22;;;;;;;0.88;0.52;;;-0.80;99.90;;;;;;20824507;28;20044;-64
2020/12/04 06:06:31;;;;;;;1.48;0.70;;;-0.80;99.90;;;;;;20747835;28;20088;-64
2020/12/04 06:16:33;;;;;;;1.20;0.55;;;-0.80;99.90;;;;;;20746362;28;20038;-64
2020/12/04 06:27:01;;;;;;;3.60;0.32;;;-0.80;99.90;;;;;;20744894;28;20054;-63
2020/12/04 06:37:02;;;;;;;0.70;0.50;;;-0.70;99.90;;;;;;20741243;28;20042;-63
2020/12/04 06:47:12;;;;;;;0.90;0.50;;;-0.70;99.90;;;;;;20727324;28;20049;-64
2020/12/04 06:57:17;;;;;;;2.17;0.40;;;-0.60;99.90;;;;;;20778538;28;20045;-63
2020/12/04 07:07:25;;;;;;;0.90;0.57;;;-0.50;99.90;;;;;;20823591;28;20053;-63
2020/12/04 07:17:29;;;;;;;0.90;0.40;;;-0.30;99.90;;;;;;20756420;28;20073;-64
2020/12/04 07:27:31;;;;;;;1.23;0.60;;;-0.10;99.90;;;;;;20754138;28;20121;-64
2020/12/04 07:37:33;;;;;;;0.63;0.40;;;-0.10;99.90;;;;;;20758716;28;20096;-63
2020/12/04 07:47:41;;;;;;;1.48;0.60;;;0.00;99.90;;;;;;20756818;28;20566;-64
2020/12/04 07:57:52;;;;;;;0.73;0.50;;;0.00;99.90;;;;;;20771531;28;20057;-64
2020/12/04 08:07:55;;;;;;;3.28;0.60;;;0.00;99.90;;;;;;20837383;28;20476;-63
2020/12/04 08:18:06;;;;;;;3.15;0.73;;;0.20;99.90;;;;;;20759564;28;20030;-64
2020/12/04 08:28:08;;;;;;;0.82;0.52;;;0.30;99.90;;;;;;20737881;28;20042;-63
2020/12/04 08:38:15;;;;;;;0.60;0.30;;;0.30;99.90;;;;;;20753730;28;20038;-63
2020/12/04 08:48:20;;;;;;;1.10;0.75;;;0.40;99.90;;;;;;20736004;28;20100;-63
2020/12/04 08:58:24;;;;;;;1.58;0.90;;;0.40;99.90;;;;;;20739597;28;20419;-63
2020/12/04 09:08:26;;;;;;;1.40;0.93;;;0.40;99.90;;;;;;20751034;28;20058;-63
2020/12/04 09:18:29;;;;;;;2.00;0.50;;;0.50;99.90;;;;;;20751051;28;20044;-63
2020/12/04 09:28:31;;;;;;;0.88;0.70;;;0.60;99.90;;;;;;20778488;28;20093;-63
2020/12/04 09:38:34;;;;;;;2.25;0.88;;;0.70;99.90;;;;;;20807705;28;20096;-63
2020/12/04 09:48:37;;;;;;;2.20;1.40;;;0.80;99.90;;;;;;20747508;28;20038;-63
2020/12/04 09:58:39;;;;;;;2.53;1.63;;;0.80;99.90;;;;;;20770437;28;20115;-63
2020/12/04 10:08:41;;;;;;;3.65;2.72;;;0.60;99.90;;;;;;20828609;28;20045;-63
2020/12/04 10:18:43;;;;;;;4.10;3.00;;;0.60;99.90;;;;;;20828882;28;20041;-63
2020/12/04 10:28:45;;;;;;;5.93;3.80;;;0.60;99.90;;;;;;20827400;28;20049;-63
2020/12/04 10:38:47;;;;;;;5.15;3.47;;;0.60;99.90;;;;;;20808599;28;20484;-63
2020/12/04 10:48:50;;;;;;;5.47;3.88;;;0.60;99.90;;;;;;20825971;28;20042;-62
2020/12/04 10:58:53;;;;;;;5.53;3.88;;;0.60;99.90;;;;;;20777330;28;20092;-61
2020/12/04 11:08:55;;;;;;;3.50;2.47;;;0.60;99.90;;;;;;20705384;28;20045;-61
2020/12/04 11:18:58;;;;;;;4.18;2.63;;;0.60;99.90;;;;;;20743389;28;20447;-61
2020/12/04 11:29:00;;;;;;;4.00;2.60;;;0.70;99.90;;;;;;20774845;28;20064;-61
2020/12/04 11:39:03;;;;;;;3.00;2.20;;;0.80;99.90;;;;;;20822902;28;20046;-61
2020/12/04 11:49:05;;;;;;;2.88;1.50;;;0.80;99.90;;;;;;20767567;28;20042;-61
2020/12/04 11:59:09;;;;;;;1.65;1.00;;;0.80;99.90;;;;;;20741847;28;20038;-60
2020/12/04 12:09:10;;;;;;;2.72;1.70;;;0.80;99.90;;;;;;21003437;23;20490;-61
2020/12/04 12:19:14;;;;;;;1.83;1.10;;;0.90;99.90;;;;;;20919877;28;20041;-60
2020/12/04 12:29:16;;;;;;;2.78;0.88;;;0.90;99.90;;;;;;20919028;28;20363;-60
2020/12/04 12:39:18;;;;;;;1.08;0.68;;;0.90;99.90;;;;;;20917732;28;20045;-60
2020/12/04 12:49:20;;;;;;;1.10;0.70;;;0.90;99.90;;;;;;20918086;28;20041;-60
2020/12/04 12:59:25;;;;;;;2.58;0.65;;;0.90;99.90;;;;;;20952105;28;20382;-59
2020/12/04 13:09:27;;;;;;;0.68;0.20;;;0.80;99.90;;;;;;20934294;28;20060;-60
2020/12/04 13:19:30;;;;;;;0.55;0.30;;;0.90;99.90;;;;;;20897845;28;20114;-59
2020/12/04 13:29:34;;;;;;;0.75;0.40;;;1.00;99.90;;;;;;20842497;28;20042;-59
2020/12/04 13:39:36;;;;;;;0.75;0.30;;;1.00;99.90;;;;;;20813906;28;20100;-59
2020/12/04 13:49:38;;;;;;;0.50;0.40;;;1.10;99.90;;;;;;20812606;28;20537;-59
2020/12/04 13:59:41;;;;;;;1.05;0.50;;;1.10;99.90;;;;;;20797447;28;20633;-61
2020/12/04 14:09:45;;;;;;;0.70;0.20;;;1.00;99.90;;;;;;20748057;28;20412;-60
2020/12/04 14:19:47;;;;;;;0.20;0.20;;;1.00;99.90;;;;;;20746662;28;20557;-59
2020/12/04 14:29:49;;;;;;;0.75;0.13;;;0.90;99.90;;;;;;20746386;28;20037;-59
2020/12/04 14:39:51;;;;;;;0.20;0.10;;;0.90;99.90;;;;;;20711325;28;20038;-59
2020/12/04 14:49:54;;;;;;;0.10;0.10;;;0.80;99.90;;;;;;20710983;28;20084;-59
2020/12/04 14:59:57;;;;;;;1.52;0.70;;;0.80;99.90;;;;;;20801243;28;20041;-59
2020/12/04 15:09:59;;;;;;;0.70;0.60;;;0.80;99.90;;;;;;20788403;28;20528;-58
2020/12/04 15:20:03;;;;;;;1.00;0.70;;;0.80;99.90;;;;;;20704266;28;20041;-58
2020/12/04 15:30:06;;;;;;;3.55;2.28;;;0.80;99.90;;;;;;20765992;28;20054;-59
2020/12/04 15:40:09;;;;;;;78.88;6.80;;;0.90;99.90;;;;;;20823936;28;20097;-61
2020/12/04 15:50:12;;;;;;;10.90;2.90;;;0.80;99.90;;;;;;20819313;28;20038;-59
2020/12/04 16:00:14;;;;;;;18.08;3.90;;;0.80;99.90;;;;;;20785484;28;20038;-59
2020/12/04 16:10:18;;;;;;;3.80;1.80;;;0.70;99.90;;;;;;20744889;28;20053;-60
2020/12/04 16:20:26;;;;;;;124.38;7.05;;;0.80;99.90;;;;;;20756446;28;20108;-57
2020/12/04 16:30:32;;;;;;;5.43;2.55;;;0.70;99.90;;;;;;20803797;28;20091;-57
2020/12/04 16:40:38;;;;;;;11.02;6.60;;;0.80;99.90;;;;;;20818445;28;20438;-59
2020/12/04 16:50:48;;;;;;;5.40;2.78;;;0.90;99.90;;;;;;20835267;28;20379;-58
2020/12/04 17:00:51;;;;;;;4.10;2.83;;;0.90;99.90;;;;;;20848944;28;20483;-57
2020/12/04 17:10:57;;;;;;;4.75;2.92;;;0.90;99.90;;;;;;20897935;28;20033;-54
2020/12/04 17:21:13;;;;;;;2.30;1.33;;;1.00;99.90;;;;;;20897763;28;20441;-51
2020/12/04 17:31:16;;;;;;;1.95;1.10;;;1.00;99.90;;;;;;20761847;28;20062;-55
2020/12/04 17:41:39;;;;;;;1.83;0.75;;;0.90;99.90;;;;;;20499088;28;20409;-59
2020/12/04 17:51:54;;;;;;;3.25;1.90;;;0.90;99.90;;;;;;20451579;28;20095;-59
2020/12/04 18:02:21;;;;;;;2.63;1.38;;;0.90;99.90;;;;;;20541483;28;20105;-60
2020/12/04 18:12:27;;;;;;;2.97;1.80;;;0.90;99.90;;;;;;20657425;28;20318;-60
2020/12/04 18:22:32;;;;;;;2.55;1.67;;;1.00;99.90;;;;;;20735662;28;20128;-59
2020/12/04 18:32:43;;;;;;;2.72;1.30;;;1.00;99.90;;;;;;20764193;28;20064;-58
2020/12/04 18:42:48;;;;;;;;;;;0.90;99.90;;;;;;20876569;28;20133;-59
2020/12/04 18:52:55;;;;;;;3.58;2.05;;;0.80;99.90;;;;;;20825240;28;20336;-59
2020/12/04 19:03:04;;;;;;;2.53;1.88;;;1.00;99.90;;;;;;20824962;28;20095;-59
2020/12/04 19:13:35;;;;;;;4.32;2.67;;;1.10;99.90;;;;;;20807575;28;20509;-58
2020/12/04 19:23:45;;;;;;;3.22;2.20;;;1.00;99.90;;;;;;20805562;28;20096;-58
2020/12/04 19:33:47;;;;;;;4.90;2.15;;;0.90;99.90;;;;;;20790280;28;20037;-55
2020/12/04 19:43:50;;;;;;;2.35;1.50;;;1.00;99.90;;;;;;20806947;28;20402;-55
2020/12/04 19:53:54;;;;;;;711.97;29.45;;;1.10;99.90;;;;;;20805870;28;20553;-55
2020/12/04 20:04:00;;;;;;;264.05;15.07;;;1.10;99.90;;;;;;20855257;28;20414;-56
2020/12/04 20:14:04;;;;;;;591.72;26.25;;;1.10;99.90;;;;;;20787667;28;20042;-55
2020/12/04 20:24:08;;;;;;;2.85;1.58;;;1.10;99.90;;;;;;20821427;28;20546;-50
2020/12/04 20:34:10;;;;;;;599.58;25.42;;;1.20;99.90;;;;;;20812654;28;20423;-51
2020/12/04 20:44:14;;;;;;;677.30;26.88;;;1.20;99.90;;;;;;20800568;28;20053;-52
2020/12/04 20:54:16;;;;;;;613.10;21.00;;;1.40;99.90;;;;;;20816812;28;20057;-55
2020/12/04 21:04:20;;;;;;;846.22;24.48;;;1.40;99.90;;;;;;20887493;28;20041;-58
2020/12/04 21:14:25;;;;;;;1164.68;38.00;;;1.40;99.90;;;;;;20865008;28;20045;-55
2020/12/04 21:24:30;;;;;;;1491.90;51.28;;;1.40;99.90;;;;;;20890763;28;20407;-58
2020/12/04 21:34:32;;;;;;;1320.20;58.67;;;1.80;99.90;;;;;;20797956;28;20108;-59
2020/12/04 21:44:34;;;;;;;1281.07;42.53;;;2.10;99.90;;;;;;20812074;28;20107;-60
2020/12/04 21:54:39;;;;;;;572.08;19.27;;;2.20;99.90;;;;;;20796456;28;20136;-65
2020/12/04 22:04:41;;;;;;;744.05;34.13;;;2.30;99.90;;;;;;20829021;28;20577;-63
2020/12/04 22:14:43;;;;;;;979.22;47.80;;;2.20;99.90;;;;;;20795228;28;20037;-59
2020/12/04 22:24:47;;;;;;;1999.90;74.57;;;2.40;99.90;;;;;;20827908;28;20033;-59
2020/12/04 22:34:49;;;;;;;1216.00;48.83;;;2.50;99.90;;;;;;20826521;28;20630;-59
2020/12/04 22:44:51;;;;;;;1999.90;77.07;;;2.60;99.90;;;;;;20782201;28;20578;-59
2020/12/04 22:54:54;;;;;;;1999.47;73.22;;;2.60;99.90;;;;;;20747233;28;20041;-59
2020/12/04 23:04:55;;;;;;;1784.60;60.97;;;2.70;99.90;;;;;;20726727;28;20084;-59
2020/12/04 23:14:58;;;;;;;1777.07;69.03;;;2.60;99.90;;;;;;20823870;28;20098;-60
2020/12/04 23:25:00;;;;;;;1999.90;65.85;;;2.60;99.90;;;;;;20824187;28;20446;-60
2020/12/04 23:35:04;;;;;;;961.35;34.40;;;2.80;99.90;;;;;;20823032;28;20050;-61
2020/12/04 23:45:08;;;;;;;1999.90;90.05;;;2.90;99.90;;;;;;20771813;28;20062;-60
2020/12/04 23:55:10;;;;;;;1999.90;85.32;;;2.80;99.90;;;;;;20726196;28;20112;-61
